sensor_id;sensor_type;location;lat;lon;timestamp;pressure;altitude;pressure_sealevel;temperature;humidity
40245;BME280;25963;42.694;23.600;2023-04-06T00:01:12;94969.72;;;-0.67;100.00
40245;BME280;25963;42.694;23.600;2023-04-06T00:03:37;94957.56;;;-0.66;100.00
40245;BME280;25963;42.694;23.600;2023-04-06T00:06:03;94947.25;;;-0.58;100.00
40245;BME280;25963;42.694;23.600;2023-04-06T00:08:29;94944.53;;;-0.49;100.00
40245;BME280;25963;42.694;23.600;2023-04-06T00:10:54;94951.06;;;-0.44;100.00
40245;BME280;25963;42.694;23.600;2023-04-06T00:13:20;94930.91;;;-0.59;100.00
40245;BME280;25963;42.694;23.600;2023-04-06T00:15:46;94938.56;;;-0.49;100.00
40245;BME280;25963;42.694;23.600;2023-04-06T00:18:11;94927.94;;;-0.64;100.00
40245;BME280;25963;42.694;23.600;2023-04-06T00:20:37;94933.19;;;-0.56;100.00
40245;BME280;25963;42.694;23.600;2023-04-06T00:23:03;94934.09;;;-0.39;100.00
40245;BME280;25963;42.694;23.600;2023-04-06T00:25:28;94925.16;;;-0.44;100.00
40245;BME280;25963;42.694;23.600;2023-04-06T00:27:54;94923.25;;;-0.34;100.00
40245;BME280;25963;42.694;23.600;2023-04-06T00:30:19;94910.09;;;-0.41;100.00
40245;BME280;25963;42.694;23.600;2023-04-06T00:32:45;94910.22;;;-0.51;100.00
40245;BME280;25963;42.694;23.600;2023-04-06T00:35:11;94910.22;;;-0.42;100.00
40245;BME280;25963;42.694;23.600;2023-04-06T00:37:36;94908.31;;;-0.40;100.00
40245;BME280;25963;42.694;23.600;2023-04-06T00:40:02;94908.81;;;-0.37;100.00
40245;BME280;25963;42.694;23.600;2023-04-06T00:42:28;94903.13;;;-0.40;100.00
40245;BME280;25963;42.694;23.600;2023-04-06T00:44:54;94897.94;;;-0.40;100.00
40245;BME280;25963;42.694;23.600;2023-04-06T00:47:21;94911.09;;;-0.34;100.00
40245;BME280;25963;42.694;23.600;2023-04-06T00:49:47;94894.69;;;-0.42;100.00
40245;BME280;25963;42.694;23.600;2023-04-06T00:52:12;94891.31;;;-0.35;100.00
40245;BME280;25963;42.694;23.600;2023-04-06T00:54:38;94899.63;;;-0.23;100.00
40245;BME280;25963;42.694;23.600;2023-04-06T00:57:03;94892.16;;;-0.26;100.00
40245;BME280;25963;42.694;23.600;2023-04-06T00:59:29;94919.28;;;-0.04;100.00
40245;BME280;25963;42.694;23.600;2023-04-06T01:01:55;94888.63;;;-0.17;100.00
40245;BME280;25963;42.694;23.600;2023-04-06T01:04:20;94902.25;;;-0.07;100.00
40245;BME280;25963;42.694;23.600;2023-04-06T01:06:48;94895.28;;;-0.06;100.00
40245;BME280;25963;42.694;23.600;2023-04-06T01:09:14;94911.84;;;0.01;100.00
40245;BME280;25963;42.694;23.600;2023-04-06T01:11:39;94890.75;;;-0.04;100.00
40245;BME280;25963;42.694;23.600;2023-04-06T01:14:05;94894.78;;;-0.10;100.00
40245;BME280;25963;42.694;23.600;2023-04-06T01:16:31;94896.44;;;-0.09;100.00
40245;BME280;25963;42.694;23.600;2023-04-06T01:18:56;94874.53;;;-0.14;100.00
40245;BME280;25963;42.694;23.600;2023-04-06T01:21:22;94875.19;;;-0.04;100.00
40245;BME280;25963;42.694;23.600;2023-04-06T01:23:47;94860.56;;;-0.21;100.00
40245;BME280;25963;42.694;23.600;2023-04-06T01:26:13;94872.78;;;-0.06;100.00
40245;BME280;25963;42.694;23.600;2023-04-06T01:28:39;94880.88;;;-0.09;100.00
40245;BME280;25963;42.694;23.600;2023-04-06T01:31:06;94863.38;;;-0.07;100.00
40245;BME280;25963;42.694;23.600;2023-04-06T01:33:32;94870.34;;;-0.07;100.00
40245;BME280;25963;42.694;23.600;2023-04-06T01:35:57;94876.84;;;0.05;100.00
40245;BME280;25963;42.694;23.600;2023-04-06T01:38:23;94880.22;;;-0.11;100.00
40245;BME280;25963;42.694;23.600;2023-04-06T01:40:48;94866.16;;;0.00;100.00
40245;BME280;25963;42.694;23.600;2023-04-06T01:43:14;94883.16;;;0.03;100.00
40245;BME280;25963;42.694;23.600;2023-04-06T01:45:40;94861.59;;;0.02;100.00
40245;BME280;25963;42.694;23.600;2023-04-06T01:48:06;94868.75;;;0.00;100.00
40245;BME280;25963;42.694;23.600;2023-04-06T01:50:32;94882.72;;;0.15;100.00
40245;BME280;25963;42.694;23.600;2023-04-06T01:52:57;94891.63;;;0.21;100.00
40245;BME280;25963;42.694;23.600;2023-04-06T01:55:22;94862.09;;;-0.03;100.00
40245;BME280;25963;42.694;23.600;2023-04-06T01:57:48;94867.09;;;-0.01;100.00
40245;BME280;25963;42.694;23.600;2023-04-06T02:00:14;94863.03;;;-0.04;100.00
40245;BME280;25963;42.694;23.600;2023-04-06T02:02:40;94855.91;;;-0.10;100.00
40245;BME280;25963;42.694;23.600;2023-04-06T02:05:06;94861.44;;;0.12;100.00
40245;BME280;25963;42.694;23.600;2023-04-06T02:07:31;94861.75;;;0.09;100.00
40245;BME280;25963;42.694;23.600;2023-04-06T02:09:57;94871.19;;;0.10;100.00
40245;BME280;25963;42.694;23.600;2023-04-06T02:12:22;94878.16;;;0.09;100.00
40245;BME280;25963;42.694;23.600;2023-04-06T02:14:48;94875.72;;;0.16;100.00
40245;BME280;25963;42.694;23.600;2023-04-06T02:17:14;94877.66;;;0.06;100.00
40245;BME280;25963;42.694;23.600;2023-04-06T02:19:40;94871.38;;;0.25;100.00
40245;BME280;25963;42.694;23.600;2023-04-06T02:22:05;94856.25;;;0.12;100.00
40245;BME280;25963;42.694;23.600;2023-04-06T02:24:31;94843.44;;;0.02;100.00
40245;BME280;25963;42.694;23.600;2023-04-06T02:26:56;94855.78;;;0.08;100.00
40245;BME280;25963;42.694;23.600;2023-04-06T02:29:22;94861.47;;;0.20;100.00
40245;BME280;25963;42.694;23.600;2023-04-06T02:31:47;94852.72;;;0.21;100.00
40245;BME280;25963;42.694;23.600;2023-04-06T02:34:13;94834.88;;;0.18;100.00
40245;BME280;25963;42.694;23.600;2023-04-06T02:36:45;94867.31;;;0.22;100.00
40245;BME280;25963;42.694;23.600;2023-04-06T02:39:11;94860.81;;;0.10;100.00
40245;BME280;25963;42.694;23.600;2023-04-06T02:41:37;94851.72;;;0.06;100.00
40245;BME280;25963;42.694;23.600;2023-04-06T02:44:03;94868.59;;;0.18;100.00
40245;BME280;25963;42.694;23.600;2023-04-06T02:46:28;94861.78;;;0.17;100.00
40245;BME280;25963;42.694;23.600;2023-04-06T02:48:54;94864.06;;;0.20;100.00
40245;BME280;25963;42.694;23.600;2023-04-06T02:51:20;94865.69;;;0.21;100.00
40245;BME280;25963;42.694;23.600;2023-04-06T02:53:46;94869.75;;;0.32;100.00
40245;BME280;25963;42.694;23.600;2023-04-06T02:56:11;94837.78;;;0.07;100.00
40245;BME280;25963;42.694;23.600;2023-04-06T02:58:37;94858.06;;;0.19;100.00
40245;BME280;25963;42.694;23.600;2023-04-06T03:01:03;94854.66;;;0.11;100.00
40245;BME280;25963;42.694;23.600;2023-04-06T03:03:29;94872.97;;;0.17;100.00
40245;BME280;25963;42.694;23.600;2023-04-06T03:05:55;94881.88;;;0.15;100.00
40245;BME280;25963;42.694;23.600;2023-04-06T03:08:23;94857.38;;;-0.07;100.00
40245;BME280;25963;42.694;23.600;2023-04-06T03:10:49;94873.78;;;0.10;100.00
40245;BME280;25963;42.694;23.600;2023-04-06T03:13:14;94874.88;;;-0.01;100.00
40245;BME280;25963;42.694;23.600;2023-04-06T03:15:40;94861.13;;;-0.02;100.00
40245;BME280;25963;42.694;23.600;2023-04-06T03:18:05;94864.16;;;-0.06;100.00
40245;BME280;25963;42.694;23.600;2023-04-06T03:20:31;94872.78;;;-0.06;100.00
40245;BME280;25963;42.694;23.600;2023-04-06T03:22:56;94853.31;;;-0.10;100.00
40245;BME280;25963;42.694;23.600;2023-04-06T03:25:22;94867.94;;;0.08;100.00
40245;BME280;25963;42.694;23.600;2023-04-06T03:27:47;94856.78;;;0.15;100.00
40245;BME280;25963;42.694;23.600;2023-04-06T03:30:13;94877.69;;;0.30;100.00
40245;BME280;25963;42.694;23.600;2023-04-06T03:32:38;94862.28;;;0.12;100.00
40245;BME280;25963;42.694;23.600;2023-04-06T03:35:07;94862.44;;;0.11;100.00
40245;BME280;25963;42.694;23.600;2023-04-06T03:37:33;94842.97;;;0.07;100.00
40245;BME280;25963;42.694;23.600;2023-04-06T03:39:58;94841.22;;;0.15;100.00
40245;BME280;25963;42.694;23.600;2023-04-06T03:42:24;94868.59;;;0.26;100.00
40245;BME280;25963;42.694;23.600;2023-04-06T03:44:49;94869.56;;;0.17;100.00
40245;BME280;25963;42.694;23.600;2023-04-06T03:47:15;94856.44;;;0.10;100.00
40245;BME280;25963;42.694;23.600;2023-04-06T03:49:40;94852.72;;;0.13;100.00
40245;BME280;25963;42.694;23.600;2023-04-06T03:52:06;94847.81;;;-0.07;100.00
40245;BME280;25963;42.694;23.600;2023-04-06T03:54:31;94863.41;;;0.10;100.00
40245;BME280;25963;42.694;23.600;2023-04-06T03:56:57;94867.16;;;0.15;100.00
40245;BME280;25963;42.694;23.600;2023-04-06T03:59:22;94859.00;;;0.02;100.00
40245;BME280;25963;42.694;23.600;2023-04-06T04:01:48;94874.09;;;0.15;100.00
40245;BME280;25963;42.694;23.600;2023-04-06T04:04:13;94870.88;;;0.21;100.00
40245;BME280;25963;42.694;23.600;2023-04-06T04:06:39;94877.84;;;0.20;100.00
40245;BME280;25963;42.694;23.600;2023-04-06T04:09:04;94868.13;;;0.22;100.00
40245;BME280;25963;42.694;23.600;2023-04-06T04:11:30;94863.59;;;0.25;100.00
40245;BME280;25963;42.694;23.600;2023-04-06T04:13:55;94859.66;;;0.20;100.00
40245;BME280;25963;42.694;23.600;2023-04-06T04:16:21;94872.84;;;0.27;100.00
40245;BME280;25963;42.694;23.600;2023-04-06T04:18:46;94847.22;;;0.24;100.00
40245;BME280;25963;42.694;23.600;2023-04-06T04:21:13;94855.47;;;0.28;100.00
40245;BME280;25963;42.694;23.600;2023-04-06T04:23:39;94877.50;;;0.23;100.00
40245;BME280;25963;42.694;23.600;2023-04-06T04:26:05;94875.91;;;0.47;100.00
40245;BME280;25963;42.694;23.600;2023-04-06T04:28:30;94845.09;;;0.28;100.00
40245;BME280;25963;42.694;23.600;2023-04-06T04:30:56;94877.03;;;0.44;100.00
40245;BME280;25963;42.694;23.600;2023-04-06T04:33:21;94845.56;;;0.23;100.00
40245;BME280;25963;42.694;23.600;2023-04-06T04:35:47;94868.75;;;0.33;100.00
40245;BME280;25963;42.694;23.600;2023-04-06T04:38:12;94871.84;;;0.44;100.00
40245;BME280;25963;42.694;23.600;2023-04-06T04:40:38;94864.56;;;0.56;100.00
40245;BME280;25963;42.694;23.600;2023-04-06T04:43:03;94879.16;;;0.41;100.00
40245;BME280;25963;42.694;23.600;2023-04-06T04:45:29;94848.81;;;0.50;100.00
40245;BME280;25963;42.694;23.600;2023-04-06T04:47:55;94869.28;;;0.69;100.00
40245;BME280;25963;42.694;23.600;2023-04-06T04:50:20;94866.19;;;0.57;100.00
40245;BME280;25963;42.694;23.600;2023-04-06T04:52:46;94852.53;;;0.39;100.00
40245;BME280;25963;42.694;23.600;2023-04-06T04:55:11;94871.19;;;0.51;100.00
40245;BME280;25963;42.694;23.600;2023-04-06T04:57:37;94834.56;;;0.37;100.00
40245;BME280;25963;42.694;23.600;2023-04-06T05:00:02;94842.34;;;0.45;100.00
40245;BME280;25963;42.694;23.600;2023-04-06T05:02:28;94848.31;;;0.30;100.00
40245;BME280;25963;42.694;23.600;2023-04-06T05:04:53;94879.00;;;0.67;100.00
40245;BME280;25963;42.694;23.600;2023-04-06T05:07:19;94862.13;;;0.63;100.00
40245;BME280;25963;42.694;23.600;2023-04-06T05:09:46;94874.94;;;0.56;100.00
40245;BME280;25963;42.694;23.600;2023-04-06T05:12:11;94877.72;;;0.55;100.00
40245;BME280;25963;42.694;23.600;2023-04-06T05:14:37;94868.47;;;0.52;100.00
40245;BME280;25963;42.694;23.600;2023-04-06T05:17:02;94866.34;;;0.64;100.00
40245;BME280;25963;42.694;23.600;2023-04-06T05:19:28;94874.94;;;0.81;100.00
40245;BME280;25963;42.694;23.600;2023-04-06T05:21:54;94863.75;;;0.72;100.00
40245;BME280;25963;42.694;23.600;2023-04-06T05:24:20;94878.63;;;0.86;100.00
40245;BME280;25963;42.694;23.600;2023-04-06T05:26:45;94863.06;;;0.86;100.00
40245;BME280;25963;42.694;23.600;2023-04-06T05:29:11;94875.38;;;0.93;100.00
40245;BME280;25963;42.694;23.600;2023-04-06T05:31:37;94875.09;;;0.87;100.00
40245;BME280;25963;42.694;23.600;2023-04-06T05:34:02;94877.03;;;0.94;100.00
40245;BME280;25963;42.694;23.600;2023-04-06T05:36:28;94854.00;;;0.82;100.00
40245;BME280;25963;42.694;23.600;2023-04-06T05:38:53;94864.84;;;0.78;100.00
40245;BME280;25963;42.694;23.600;2023-04-06T05:41:20;94845.09;;;0.60;100.00
40245;BME280;25963;42.694;23.600;2023-04-06T05:43:46;94868.28;;;0.78;100.00
40245;BME280;25963;42.694;23.600;2023-04-06T05:46:11;94865.50;;;0.96;100.00
40245;BME280;25963;42.694;23.600;2023-04-06T05:48:36;94874.44;;;1.02;100.00
40245;BME280;25963;42.694;23.600;2023-04-06T05:51:02;94864.66;;;0.96;100.00
40245;BME280;25963;42.694;23.600;2023-04-06T05:53:31;94852.66;;;1.11;100.00
40245;BME280;25963;42.694;23.600;2023-04-06T05:55:57;94856.72;;;1.05;100.00
40245;BME280;25963;42.694;23.600;2023-04-06T05:58:22;94831.59;;;0.81;100.00
40245;BME280;25963;42.694;23.600;2023-04-06T06:00:48;94858.78;;;1.10;100.00
40245;BME280;25963;42.694;23.600;2023-04-06T06:03:13;94853.94;;;1.07;100.00
40245;BME280;25963;42.694;23.600;2023-04-06T06:05:40;94854.91;;;1.14;100.00
40245;BME280;25963;42.694;23.600;2023-04-06T06:08:05;94858.72;;;1.34;100.00
40245;BME280;25963;42.694;23.600;2023-04-06T06:10:31;94864.56;;;1.45;100.00
40245;BME280;25963;42.694;23.600;2023-04-06T06:12:56;94855.16;;;1.44;100.00
40245;BME280;25963;42.694;23.600;2023-04-06T06:15:22;94850.13;;;1.34;100.00
40245;BME280;25963;42.694;23.600;2023-04-06T06:17:47;94842.19;;;1.27;100.00
40245;BME280;25963;42.694;23.600;2023-04-06T06:20:13;94840.38;;;1.36;100.00
40245;BME280;25963;42.694;23.600;2023-04-06T06:22:54;94826.38;;;1.37;100.00
40245;BME280;25963;42.694;23.600;2023-04-06T06:25:19;94859.31;;;1.53;100.00
40245;BME280;25963;42.694;23.600;2023-04-06T06:27:46;94848.00;;;1.37;100.00
40245;BME280;25963;42.694;23.600;2023-04-06T06:30:12;94859.16;;;1.54;100.00
40245;BME280;25963;42.694;23.600;2023-04-06T06:32:37;94870.16;;;1.65;100.00
40245;BME280;25963;42.694;23.600;2023-04-06T06:35:03;94853.81;;;1.48;100.00
40245;BME280;25963;42.694;23.600;2023-04-06T06:37:28;94849.03;;;1.68;100.00
40245;BME280;25963;42.694;23.600;2023-04-06T06:39:54;94857.22;;;1.79;100.00
40245;BME280;25963;42.694;23.600;2023-04-06T06:42:20;94849.19;;;1.66;100.00
40245;BME280;25963;42.694;23.600;2023-04-06T06:44:45;94858.25;;;1.70;100.00
40245;BME280;25963;42.694;23.600;2023-04-06T06:47:11;94860.91;;;1.62;100.00
40245;BME280;25963;42.694;23.600;2023-04-06T06:49:36;94864.47;;;1.61;100.00
40245;BME280;25963;42.694;23.600;2023-04-06T06:52:02;94851.88;;;1.50;100.00
40245;BME280;25963;42.694;23.600;2023-04-06T06:54:27;94844.66;;;1.60;100.00
40245;BME280;25963;42.694;23.600;2023-04-06T06:56:53;94852.13;;;1.63;100.00
40245;BME280;25963;42.694;23.600;2023-04-06T06:59:19;94858.59;;;1.67;100.00
40245;BME280;25963;42.694;23.600;2023-04-06T07:01:46;94867.97;;;1.76;100.00
40245;BME280;25963;42.694;23.600;2023-04-06T07:04:11;94856.31;;;1.72;100.00
40245;BME280;25963;42.694;23.600;2023-04-06T07:06:37;94855.97;;;1.75;100.00
40245;BME280;25963;42.694;23.600;2023-04-06T07:09:02;94851.41;;;1.77;100.00
40245;BME280;25963;42.694;23.600;2023-04-06T07:11:30;94870.81;;;1.98;100.00
40245;BME280;25963;42.694;23.600;2023-04-06T07:13:56;94867.09;;;2.15;100.00
40245;BME280;25963;42.694;23.600;2023-04-06T07:16:21;94844.09;;;2.04;100.00
40245;BME280;25963;42.694;23.600;2023-04-06T07:18:46;94875.22;;;2.20;100.00
40245;BME280;25963;42.694;23.600;2023-04-06T07:21:12;94858.22;;;2.10;100.00
40245;BME280;25963;42.694;23.600;2023-04-06T07:23:38;94850.81;;;2.21;100.00
40245;BME280;25963;42.694;23.600;2023-04-06T07:26:03;94864.25;;;2.10;100.00
40245;BME280;25963;42.694;23.600;2023-04-06T07:28:29;94839.59;;;1.98;100.00
40245;BME280;25963;42.694;23.600;2023-04-06T07:30:54;94858.34;;;2.16;100.00
40245;BME280;25963;42.694;23.600;2023-04-06T07:33:20;94866.38;;;2.29;100.00
40245;BME280;25963;42.694;23.600;2023-04-06T07:35:46;94864.72;;;2.37;100.00
40245;BME280;25963;42.694;23.600;2023-04-06T07:38:11;94850.00;;;2.21;100.00
40245;BME280;25963;42.694;23.600;2023-04-06T07:40:37;94847.09;;;2.39;100.00
40245;BME280;25963;42.694;23.600;2023-04-06T07:43:02;94845.94;;;2.64;100.00
40245;BME280;25963;42.694;23.600;2023-04-06T07:45:28;94867.81;;;2.55;100.00
40245;BME280;25963;42.694;23.600;2023-04-06T07:47:54;94860.13;;;2.62;100.00
40245;BME280;25963;42.694;23.600;2023-04-06T07:50:19;94863.06;;;2.59;100.00
40245;BME280;25963;42.694;23.600;2023-04-06T07:52:45;94827.91;;;2.17;100.00
40245;BME280;25963;42.694;23.600;2023-04-06T07:55:11;94850.13;;;2.27;100.00
40245;BME280;25963;42.694;23.600;2023-04-06T07:57:36;94851.41;;;2.32;100.00
40245;BME280;25963;42.694;23.600;2023-04-06T08:00:02;94852.66;;;2.36;100.00
40245;BME280;25963;42.694;23.600;2023-04-06T08:02:29;94855.03;;;2.22;100.00
40245;BME280;25963;42.694;23.600;2023-04-06T08:04:54;94845.16;;;2.41;100.00
40245;BME280;25963;42.694;23.600;2023-04-06T08:07:20;94849.69;;;2.62;100.00
40245;BME280;25963;42.694;23.600;2023-04-06T08:09:45;94852.78;;;2.80;100.00
40245;BME280;25963;42.694;23.600;2023-04-06T08:12:11;94855.09;;;3.13;100.00
40245;BME280;25963;42.694;23.600;2023-04-06T08:14:36;94836.66;;;2.85;100.00
40245;BME280;25963;42.694;23.600;2023-04-06T08:17:02;94862.72;;;3.00;100.00
40245;BME280;25963;42.694;23.600;2023-04-06T08:19:30;94858.31;;;3.00;100.00
40245;BME280;25963;42.694;23.600;2023-04-06T08:21:55;94866.19;;;2.92;100.00
40245;BME280;25963;42.694;23.600;2023-04-06T08:24:21;94872.16;;;3.01;100.00
40245;BME280;25963;42.694;23.600;2023-04-06T08:26:46;94840.44;;;2.97;100.00
40245;BME280;25963;42.694;23.600;2023-04-06T08:29:12;94881.16;;;3.13;100.00
40245;BME280;25963;42.694;23.600;2023-04-06T08:31:37;94866.16;;;3.30;100.00
40245;BME280;25963;42.694;23.600;2023-04-06T08:34:04;94873.44;;;3.49;100.00
40245;BME280;25963;42.694;23.600;2023-04-06T08:36:29;94874.97;;;3.29;100.00
40245;BME280;25963;42.694;23.600;2023-04-06T08:38:56;94875.25;;;3.49;100.00
40245;BME280;25963;42.694;23.600;2023-04-06T08:41:21;94867.59;;;3.17;100.00
40245;BME280;25963;42.694;23.600;2023-04-06T08:43:49;94877.19;;;3.02;100.00
40245;BME280;25963;42.694;23.600;2023-04-06T08:46:15;94857.97;;;3.18;100.00
40245;BME280;25963;42.694;23.600;2023-04-06T08:48:42;94862.56;;;3.31;100.00
40245;BME280;25963;42.694;23.600;2023-04-06T08:51:11;94867.84;;;3.52;100.00
40245;BME280;25963;42.694;23.600;2023-04-06T08:53:37;94877.63;;;3.80;100.00
40245;BME280;25963;42.694;23.600;2023-04-06T08:56:04;94865.97;;;4.12;100.00
40245;BME280;25963;42.694;23.600;2023-04-06T08:58:34;94869.69;;;4.03;98.56
40245;BME280;25963;42.694;23.600;2023-04-06T09:01:00;94856.53;;;4.11;98.73
40245;BME280;25963;42.694;23.600;2023-04-06T09:03:28;94866.25;;;4.39;97.83
40245;BME280;25963;42.694;23.600;2023-04-06T09:05:55;94868.03;;;4.60;98.83
40245;BME280;25963;42.694;23.600;2023-04-06T09:08:21;94859.03;;;4.62;94.85
40245;BME280;25963;42.694;23.600;2023-04-06T09:10:47;94861.97;;;4.52;97.79
40245;BME280;25963;42.694;23.600;2023-04-06T09:13:14;94855.84;;;4.45;96.79
40245;BME280;25963;42.694;23.600;2023-04-06T09:15:39;94855.38;;;4.35;96.87
40245;BME280;25963;42.694;23.600;2023-04-06T09:18:05;94850.44;;;4.68;98.21
40245;BME280;25963;42.694;23.600;2023-04-06T09:20:31;94835.19;;;4.72;97.31
40245;BME280;25963;42.694;23.600;2023-04-06T09:22:56;94846.66;;;4.99;96.48
40245;BME280;25963;42.694;23.600;2023-04-06T09:25:24;94850.91;;;4.78;93.71
40245;BME280;25963;42.694;23.600;2023-04-06T09:27:59;94860.88;;;5.18;95.55
40245;BME280;25963;42.694;23.600;2023-04-06T09:30:25;94851.91;;;4.77;94.12
40245;BME280;25963;42.694;23.600;2023-04-06T09:32:53;94851.06;;;4.98;93.54
40245;BME280;25963;42.694;23.600;2023-04-06T09:35:20;94824.84;;;5.13;93.21
40245;BME280;25963;42.694;23.600;2023-04-06T09:37:50;94855.97;;;5.36;93.40
40245;BME280;25963;42.694;23.600;2023-04-06T09:40:16;94856.44;;;5.53;93.55
40245;BME280;25963;42.694;23.600;2023-04-06T09:42:46;94845.81;;;5.55;95.45
40245;BME280;25963;42.694;23.600;2023-04-06T09:45:12;94860.81;;;5.11;92.24
40245;BME280;25963;42.694;23.600;2023-04-06T09:47:40;94846.22;;;4.95;92.18
40245;BME280;25963;42.694;23.600;2023-04-06T09:50:07;94862.16;;;5.00;92.26
40245;BME280;25963;42.694;23.600;2023-04-06T09:52:51;94848.41;;;5.55;94.08
40245;BME280;25963;42.694;23.600;2023-04-06T09:55:42;94840.88;;;5.38;89.59
40245;BME280;25963;42.694;23.600;2023-04-06T09:58:12;94849.25;;;5.62;89.74
40245;BME280;25963;42.694;23.600;2023-04-06T10:00:49;94847.78;;;5.53;89.44
40245;BME280;25963;42.694;23.600;2023-04-06T10:05:55;94840.47;;;5.41;92.25
40245;BME280;25963;42.694;23.600;2023-04-06T10:08:27;94859.13;;;5.60;88.21
40245;BME280;25963;42.694;23.600;2023-04-06T10:10:54;94826.84;;;5.46;89.21
40245;BME280;25963;42.694;23.600;2023-04-06T10:13:20;94839.94;;;5.53;87.56
40245;BME280;25963;42.694;23.600;2023-04-06T10:15:46;94837.16;;;5.61;89.76
40245;BME280;25963;42.694;23.600;2023-04-06T10:18:13;94826.94;;;5.66;89.42
40245;BME280;25963;42.694;23.600;2023-04-06T10:23:35;94837.41;;;5.66;88.08
40245;BME280;25963;42.694;23.600;2023-04-06T10:26:02;94830.06;;;5.48;88.88
40245;BME280;25963;42.694;23.600;2023-04-06T10:28:32;94825.69;;;5.62;89.77
40245;BME280;25963;42.694;23.600;2023-04-06T10:31:00;94830.09;;;5.55;89.57
40245;BME280;25963;42.694;23.600;2023-04-06T10:33:26;94821.75;;;5.79;90.56
40245;BME280;25963;42.694;23.600;2023-04-06T10:35:52;94810.38;;;6.07;89.42
40245;BME280;25963;42.694;23.600;2023-04-06T10:38:19;94818.22;;;6.07;88.03
40245;BME280;25963;42.694;23.600;2023-04-06T10:40:47;94814.81;;;6.00;86.54
40245;BME280;25963;42.694;23.600;2023-04-06T10:43:20;94808.88;;;5.78;89.08
40245;BME280;25963;42.694;23.600;2023-04-06T10:45:55;94822.59;;;5.86;85.75
40245;BME280;25963;42.694;23.600;2023-04-06T10:48:21;94827.91;;;6.13;87.41
40245;BME280;25963;42.694;23.600;2023-04-06T10:50:48;94822.97;;;5.83;86.52
40245;BME280;25963;42.694;23.600;2023-04-06T10:53:25;94790.84;;;6.03;90.56
40245;BME280;25963;42.694;23.600;2023-04-06T10:55:54;94818.84;;;6.02;87.75
40245;BME280;25963;42.694;23.600;2023-04-06T10:58:20;94815.88;;;6.25;87.99
40245;BME280;25963;42.694;23.600;2023-04-06T11:00:46;94818.50;;;6.32;84.70
40245;BME280;25963;42.694;23.600;2023-04-06T11:03:12;94808.66;;;6.74;87.89
40245;BME280;25963;42.694;23.600;2023-04-06T11:05:38;94806.25;;;6.59;84.00
40245;BME280;25963;42.694;23.600;2023-04-06T11:08:04;94802.63;;;6.73;85.90
40245;BME280;25963;42.694;23.600;2023-04-06T11:10:30;94783.84;;;6.83;83.95
40245;BME280;25963;42.694;23.600;2023-04-06T11:12:56;94778.19;;;7.06;83.92
40245;BME280;25963;42.694;23.600;2023-04-06T11:15:22;94799.38;;;6.71;83.41
40245;BME280;25963;42.694;23.600;2023-04-06T11:17:48;94772.72;;;7.07;86.75
40245;BME280;25963;42.694;23.600;2023-04-06T11:20:14;94780.81;;;7.71;89.29
40245;BME280;25963;42.694;23.600;2023-04-06T11:22:53;94769.56;;;7.95;82.13
40245;BME280;25963;42.694;23.600;2023-04-06T11:25:18;94764.63;;;7.74;74.44
40245;BME280;25963;42.694;23.600;2023-04-06T11:27:45;94767.34;;;8.31;75.79
40245;BME280;25963;42.694;23.600;2023-04-06T11:30:11;94763.03;;;8.50;70.60
40245;BME280;25963;42.694;23.600;2023-04-06T11:32:41;94766.28;;;8.70;69.93
40245;BME280;25963;42.694;23.600;2023-04-06T11:35:20;94757.94;;;8.80;78.38
40245;BME280;25963;42.694;23.600;2023-04-06T11:37:49;94742.28;;;8.85;68.49
40245;BME280;25963;42.694;23.600;2023-04-06T11:40:15;94735.97;;;8.67;67.39
40245;BME280;25963;42.694;23.600;2023-04-06T11:42:40;94763.97;;;8.55;64.32
40245;BME280;25963;42.694;23.600;2023-04-06T11:45:07;94741.81;;;8.44;63.55
40245;BME280;25963;42.694;23.600;2023-04-06T11:47:36;94759.47;;;8.31;64.59
40245;BME280;25963;42.694;23.600;2023-04-06T11:50:14;94759.81;;;7.71;66.50
40245;BME280;25963;42.694;23.600;2023-04-06T11:52:40;94759.31;;;7.42;69.20
40245;BME280;25963;42.694;23.600;2023-04-06T11:55:11;94754.72;;;7.31;67.08
40245;BME280;25963;42.694;23.600;2023-04-06T11:57:37;94751.31;;;7.17;67.47
40245;BME280;25963;42.694;23.600;2023-04-06T12:00:03;94752.19;;;6.98;67.33
40245;BME280;25963;42.694;23.600;2023-04-06T12:02:29;94729.75;;;7.02;66.62
40245;BME280;25963;42.694;23.600;2023-04-06T12:04:56;94755.78;;;6.97;66.04
40245;BME280;25963;42.694;23.600;2023-04-06T12:07:21;94750.94;;;6.94;65.52
40245;BME280;25963;42.694;23.600;2023-04-06T12:09:47;94746.88;;;7.24;66.97
40245;BME280;25963;42.694;23.600;2023-04-06T12:12:12;94749.34;;;7.06;66.30
40245;BME280;25963;42.694;23.600;2023-04-06T12:14:38;94756.03;;;6.62;66.18
40245;BME280;25963;42.694;23.600;2023-04-06T12:17:03;94742.91;;;6.89;68.09
40245;BME280;25963;42.694;23.600;2023-04-06T12:19:29;94735.84;;;6.96;64.21
40245;BME280;25963;42.694;23.600;2023-04-06T12:21:55;94762.44;;;6.99;64.90
40245;BME280;25963;42.694;23.600;2023-04-06T12:24:21;94759.41;;;7.09;63.84
40245;BME280;25963;42.694;23.600;2023-04-06T12:26:50;94759.41;;;7.09;62.96
40245;BME280;25963;42.694;23.600;2023-04-06T12:29:16;94740.66;;;7.12;65.59
40245;BME280;25963;42.694;23.600;2023-04-06T12:31:41;94756.28;;;7.39;62.26
40245;BME280;25963;42.694;23.600;2023-04-06T12:34:09;94742.75;;;7.42;62.22
40245;BME280;25963;42.694;23.600;2023-04-06T12:36:36;94745.16;;;7.50;65.53
40245;BME280;25963;42.694;23.600;2023-04-06T12:39:02;94735.09;;;7.40;61.41
40245;BME280;25963;42.694;23.600;2023-04-06T12:41:28;94751.63;;;7.54;64.40
40245;BME280;25963;42.694;23.600;2023-04-06T12:43:53;94748.88;;;7.22;64.04
40245;BME280;25963;42.694;23.600;2023-04-06T12:46:19;94755.91;;;7.35;61.76
40245;BME280;25963;42.694;23.600;2023-04-06T12:48:45;94744.41;;;7.36;64.21
40245;BME280;25963;42.694;23.600;2023-04-06T12:51:11;94743.94;;;7.52;60.66